sensor_id;sensor_type;location;lat;lon;timestamp;P1;durP1;ratioP1;P2;durP2;ratioP2
33413;SDS011;60055;41.884;12.534;2022-10-16T00:01:34;32.00;;;21.75;;
33413;SDS011;60055;41.884;12.534;2022-10-16T00:04:01;33.03;;;22.27;;
33413;SDS011;60055;41.884;12.534;2022-10-16T00:06:28;37.85;;;23.13;;
33413;SDS011;60055;41.884;12.534;2022-10-16T00:08:54;35.50;;;21.95;;
33413;SDS011;60055;41.884;12.534;2022-10-16T00:11:24;38.42;;;22.08;;
33413;SDS011;60055;41.884;12.534;2022-10-16T00:13:52;36.90;;;22.63;;
33413;SDS011;60055;41.884;12.534;2022-10-16T00:16:21;38.45;;;22.05;;
33413;SDS011;60055;41.884;12.534;2022-10-16T00:18:46;37.08;;;22.88;;
33413;SDS011;60055;41.884;12.534;2022-10-16T00:21:14;33.55;;;22.30;;
33413;SDS011;60055;41.884;12.534;2022-10-16T00:23:41;37.13;;;22.35;;
33413;SDS011;60055;41.884;12.534;2022-10-16T00:26:09;35.22;;;21.73;;
33413;SDS011;60055;41.884;12.534;2022-10-16T00:28:39;31.77;;;21.27;;
33413;SDS011;60055;41.884;12.534;2022-10-16T00:31:06;36.25;;;21.77;;
33413;SDS011;60055;41.884;12.534;2022-10-16T00:33:34;33.17;;;20.25;;
33413;SDS011;60055;41.884;12.534;2022-10-16T00:36:00;28.00;;;19.38;;
33413;SDS011;60055;41.884;12.534;2022-10-16T00:38:28;30.70;;;18.80;;
33413;SDS011;60055;41.884;12.534;2022-10-16T00:40:53;30.38;;;18.58;;
33413;SDS011;60055;41.884;12.534;2022-10-16T00:43:36;28.20;;;18.23;;
33413;SDS011;60055;41.884;12.534;2022-10-16T00:46:17;25.25;;;16.55;;
33413;SDS011;60055;41.884;12.534;2022-10-16T00:51:25;28.23;;;16.42;;
33413;SDS011;60055;41.884;12.534;2022-10-16T00:53:55;25.70;;;15.93;;
33413;SDS011;60055;41.884;12.534;2022-10-16T00:56:21;27.38;;;15.23;;
33413;SDS011;60055;41.884;12.534;2022-10-16T00:58:47;27.65;;;15.65;;
33413;SDS011;60055;41.884;12.534;2022-10-16T01:01:13;24.20;;;16.00;;
33413;SDS011;60055;41.884;12.534;2022-10-16T01:03:38;23.30;;;16.17;;
33413;SDS011;60055;41.884;12.534;2022-10-16T01:12:16;30.08;;;17.55;;
33413;SDS011;60055;41.884;12.534;2022-10-16T01:14:54;31.92;;;18.23;;
33413;SDS011;60055;41.884;12.534;2022-10-16T01:17:45;30.95;;;18.50;;
33413;SDS011;60055;41.884;12.534;2022-10-16T01:20:20;30.70;;;19.25;;
33413;SDS011;60055;41.884;12.534;2022-10-16T01:28:17;27.10;;;17.17;;
33413;SDS011;60055;41.884;12.534;2022-10-16T01:30:47;28.15;;;17.52;;
33413;SDS011;60055;41.884;12.534;2022-10-16T01:33:20;28.65;;;17.30;;
33413;SDS011;60055;41.884;12.534;2022-10-16T01:36:20;29.17;;;17.73;;
33413;SDS011;60055;41.884;12.534;2022-10-16T01:38:53;25.70;;;17.15;;
33413;SDS011;60055;41.884;12.534;2022-10-16T01:41:30;27.60;;;17.60;;
33413;SDS011;60055;41.884;12.534;2022-10-16T01:44:08;27.27;;;15.95;;
33413;SDS011;60055;41.884;12.534;2022-10-16T01:46:39;25.10;;;16.17;;
33413;SDS011;60055;41.884;12.534;2022-10-16T01:49:07;27.67;;;16.30;;
33413;SDS011;60055;41.884;12.534;2022-10-16T01:51:35;23.50;;;15.25;;
33413;SDS011;60055;41.884;12.534;2022-10-16T01:54:07;30.05;;;15.77;;
33413;SDS011;60055;41.884;12.534;2022-10-16T01:56:48;25.77;;;16.20;;
33413;SDS011;60055;41.884;12.534;2022-10-16T01:59:16;24.90;;;15.55;;
33413;SDS011;60055;41.884;12.534;2022-10-16T02:01:48;27.90;;;16.75;;
33413;SDS011;60055;41.884;12.534;2022-10-16T02:04:42;28.33;;;15.55;;
33413;SDS011;60055;41.884;12.534;2022-10-16T02:07:18;24.33;;;14.77;;
33413;SDS011;60055;41.884;12.534;2022-10-16T02:09:45;27.02;;;16.02;;
33413;SDS011;60055;41.884;12.534;2022-10-16T02:12:25;27.25;;;16.98;;
33413;SDS011;60055;41.884;12.534;2022-10-16T02:14:55;22.03;;;14.77;;
33413;SDS011;60055;41.884;12.534;2022-10-16T02:17:21;24.08;;;14.07;;
33413;SDS011;60055;41.884;12.534;2022-10-16T02:19:47;22.33;;;14.05;;
33413;SDS011;60055;41.884;12.534;2022-10-16T02:22:38;23.67;;;14.13;;
33413;SDS011;60055;41.884;12.534;2022-10-16T02:25:15;23.50;;;14.63;;
33413;SDS011;60055;41.884;12.534;2022-10-16T02:28:16;23.92;;;14.48;;
33413;SDS011;60055;41.884;12.534;2022-10-16T02:30:51;22.58;;;14.52;;
33413;SDS011;60055;41.884;12.534;2022-10-16T02:33:26;21.92;;;13.52;;
33413;SDS011;60055;41.884;12.534;2022-10-16T02:35:54;24.70;;;14.20;;
33413;SDS011;60055;41.884;12.534;2022-10-16T02:38:24;24.65;;;16.70;;
33413;SDS011;60055;41.884;12.534;2022-10-16T02:40:51;31.85;;;19.73;;
33413;SDS011;60055;41.884;12.534;2022-10-16T02:43:17;28.55;;;14.90;;
33413;SDS011;60055;41.884;12.534;2022-10-16T02:45:55;21.38;;;13.95;;
33413;SDS011;60055;41.884;12.534;2022-10-16T02:48:21;27.55;;;14.90;;
33413;SDS011;60055;41.884;12.534;2022-10-16T02:50:49;25.50;;;14.48;;
33413;SDS011;60055;41.884;12.534;2022-10-16T02:53:21;29.85;;;16.13;;
33413;SDS011;60055;41.884;12.534;2022-10-16T02:55:47;21.73;;;15.20;;
33413;SDS011;60055;41.884;12.534;2022-10-16T02:58:19;24.13;;;14.45;;
33413;SDS011;60055;41.884;12.534;2022-10-16T03:00:50;25.08;;;15.15;;
33413;SDS011;60055;41.884;12.534;2022-10-16T03:03:21;22.80;;;14.20;;
33413;SDS011;60055;41.884;12.534;2022-10-16T03:05:50;21.55;;;13.68;;
33413;SDS011;60055;41.884;12.534;2022-10-16T03:08:27;22.13;;;13.57;;
33413;SDS011;60055;41.884;12.534;2022-10-16T03:10:54;21.60;;;13.27;;
33413;SDS011;60055;41.884;12.534;2022-10-16T03:13:29;24.15;;;13.88;;
33413;SDS011;60055;41.884;12.534;2022-10-16T03:16:01;22.85;;;13.52;;
33413;SDS011;60055;41.884;12.534;2022-10-16T03:18:27;24.98;;;14.38;;
33413;SDS011;60055;41.884;12.534;2022-10-16T03:20:53;25.25;;;13.82;;
33413;SDS011;60055;41.884;12.534;2022-10-16T03:23:21;29.60;;;17.42;;
33413;SDS011;60055;41.884;12.534;2022-10-16T03:25:48;25.73;;;15.98;;
33413;SDS011;60055;41.884;12.534;2022-10-16T03:28:18;25.73;;;17.13;;
33413;SDS011;60055;41.884;12.534;2022-10-16T03:30:44;29.48;;;16.80;;
33413;SDS011;60055;41.884;12.534;2022-10-16T03:33:33;30.00;;;17.33;;
33413;SDS011;60055;41.884;12.534;2022-10-16T03:36:37;30.40;;;16.60;;
33413;SDS011;60055;41.884;12.534;2022-10-16T03:39:08;28.35;;;17.83;;
33413;SDS011;60055;41.884;12.534;2022-10-16T03:41:37;27.67;;;17.67;;
33413;SDS011;60055;41.884;12.534;2022-10-16T03:44:04;28.95;;;15.98;;
33413;SDS011;60055;41.884;12.534;2022-10-16T03:46:33;26.02;;;16.85;;
33413;SDS011;60055;41.884;12.534;2022-10-16T03:49:04;28.08;;;16.05;;
33413;SDS011;60055;41.884;12.534;2022-10-16T03:51:36;27.20;;;17.15;;
33413;SDS011;60055;41.884;12.534;2022-10-16T03:54:03;26.95;;;17.27;;
33413;SDS011;60055;41.884;12.534;2022-10-16T03:56:29;29.33;;;17.88;;
33413;SDS011;60055;41.884;12.534;2022-10-16T03:58:57;30.50;;;17.55;;
33413;SDS011;60055;41.884;12.534;2022-10-16T04:01:25;27.65;;;17.05;;
33413;SDS011;60055;41.884;12.534;2022-10-16T04:03:52;27.77;;;17.02;;
33413;SDS011;60055;41.884;12.534;2022-10-16T04:06:18;25.40;;;16.40;;
33413;SDS011;60055;41.884;12.534;2022-10-16T04:08:44;25.73;;;17.40;;
33413;SDS011;60055;41.884;12.534;2022-10-16T04:11:13;31.10;;;18.42;;
33413;SDS011;60055;41.884;12.534;2022-10-16T04:13:41;28.55;;;17.23;;
33413;SDS011;60055;41.884;12.534;2022-10-16T04:16:18;31.02;;;18.15;;
33413;SDS011;60055;41.884;12.534;2022-10-16T04:19:01;27.58;;;17.38;;
33413;SDS011;60055;41.884;12.534;2022-10-16T04:21:46;27.70;;;16.75;;
33413;SDS011;60055;41.884;12.534;2022-10-16T04:24:17;23.20;;;15.95;;
33413;SDS011;60055;41.884;12.534;2022-10-16T04:26:48;24.30;;;16.65;;
33413;SDS011;60055;41.884;12.534;2022-10-16T04:29:14;25.77;;;15.02;;
33413;SDS011;60055;41.884;12.534;2022-10-16T04:31:50;25.20;;;15.35;;
33413;SDS011;60055;41.884;12.534;2022-10-16T04:34:22;30.17;;;15.63;;
33413;SDS011;60055;41.884;12.534;2022-10-16T04:36:48;26.63;;;14.98;;
33413;SDS011;60055;41.884;12.534;2022-10-16T04:39:17;28.33;;;15.23;;
33413;SDS011;60055;41.884;12.534;2022-10-16T04:41:46;24.35;;;14.90;;
33413;SDS011;60055;41.884;12.534;2022-10-16T04:44:14;25.27;;;13.90;;
33413;SDS011;60055;41.884;12.534;2022-10-16T04:46:42;23.13;;;14.80;;
33413;SDS011;60055;41.884;12.534;2022-10-16T04:49:09;25.23;;;14.35;;
33413;SDS011;60055;41.884;12.534;2022-10-16T04:51:37;26.63;;;14.25;;
33413;SDS011;60055;41.884;12.534;2022-10-16T04:54:05;22.95;;;14.23;;
33413;SDS011;60055;41.884;12.534;2022-10-16T04:56:32;25.23;;;13.35;;
33413;SDS011;60055;41.884;12.534;2022-10-16T04:59:05;22.35;;;13.70;;
33413;SDS011;60055;41.884;12.534;2022-10-16T05:01:31;23.48;;;13.82;;
33413;SDS011;60055;41.884;12.534;2022-10-16T05:03:59;25.25;;;14.32;;
33413;SDS011;60055;41.884;12.534;2022-10-16T05:06:27;19.10;;;13.02;;
33413;SDS011;60055;41.884;12.534;2022-10-16T05:09:02;18.92;;;12.60;;
33413;SDS011;60055;41.884;12.534;2022-10-16T05:11:30;20.95;;;12.95;;
33413;SDS011;60055;41.884;12.534;2022-10-16T05:13:57;20.58;;;12.88;;
33413;SDS011;60055;41.884;12.534;2022-10-16T05:16:23;21.60;;;12.57;;
33413;SDS011;60055;41.884;12.534;2022-10-16T05:18:49;21.05;;;12.52;;
33413;SDS011;60055;41.884;12.534;2022-10-16T05:21:16;24.23;;;12.75;;
33413;SDS011;60055;41.884;12.534;2022-10-16T05:23:49;21.98;;;12.02;;
33413;SDS011;60055;41.884;12.534;2022-10-16T05:26:15;21.98;;;12.85;;
33413;SDS011;60055;41.884;12.534;2022-10-16T05:28:47;18.25;;;11.23;;
33413;SDS011;60055;41.884;12.534;2022-10-16T05:31:12;18.98;;;12.27;;
33413;SDS011;60055;41.884;12.534;2022-10-16T05:33:40;18.60;;;12.05;;
33413;SDS011;60055;41.884;12.534;2022-10-16T05:36:11;18.25;;;12.15;;
33413;SDS011;60055;41.884;12.534;2022-10-16T05:38:37;18.38;;;12.30;;
33413;SDS011;60055;41.884;12.534;2022-10-16T05:41:04;21.40;;;12.98;;
33413;SDS011;60055;41.884;12.534;2022-10-16T05:43:30;19.70;;;12.65;;
33413;SDS011;60055;41.884;12.534;2022-10-16T05:46:06;19.75;;;12.45;;
33413;SDS011;60055;41.884;12.534;2022-10-16T05:48:34;20.27;;;12.32;;
33413;SDS011;60055;41.884;12.534;2022-10-16T05:51:13;24.33;;;12.15;;
33413;SDS011;60055;41.884;12.534;2022-10-16T05:53:45;21.73;;;11.88;;
33413;SDS011;60055;41.884;12.534;2022-10-16T05:56:31;21.88;;;12.32;;
33413;SDS011;60055;41.884;12.534;2022-10-16T05:59:02;18.58;;;12.55;;
33413;SDS011;60055;41.884;12.534;2022-10-16T06:01:29;19.25;;;12.73;;
33413;SDS011;60055;41.884;12.534;2022-10-16T06:03:56;20.90;;;12.27;;
33413;SDS011;60055;41.884;12.534;2022-10-16T06:06:45;23.65;;;12.35;;
33413;SDS011;60055;41.884;12.534;2022-10-16T06:09:11;20.35;;;12.02;;
33413;SDS011;60055;41.884;12.534;2022-10-16T06:11:37;19.60;;;12.77;;
33413;SDS011;60055;41.884;12.534;2022-10-16T06:14:04;23.73;;;12.63;;
33413;SDS011;60055;41.884;12.534;2022-10-16T06:16:36;26.77;;;12.85;;
33413;SDS011;60055;41.884;12.534;2022-10-16T06:19:08;21.42;;;13.07;;
33413;SDS011;60055;41.884;12.534;2022-10-16T06:21:35;20.88;;;12.88;;
33413;SDS011;60055;41.884;12.534;2022-10-16T06:24:03;23.65;;;13.02;;
33413;SDS011;60055;41.884;12.534;2022-10-16T06:26:32;23.88;;;12.40;;
33413;SDS011;60055;41.884;12.534;2022-10-16T06:28:59;21.38;;;12.30;;
33413;SDS011;60055;41.884;12.534;2022-10-16T06:31:28;22.60;;;12.80;;
33413;SDS011;60055;41.884;12.534;2022-10-16T06:33:56;20.98;;;13.27;;
33413;SDS011;60055;41.884;12.534;2022-10-16T06:36:42;22.92;;;12.48;;
33413;SDS011;60055;41.884;12.534;2022-10-16T06:39:09;20.52;;;12.10;;
33413;SDS011;60055;41.884;12.534;2022-10-16T06:41:35;15.32;;;11.27;;
33413;SDS011;60055;41.884;12.534;2022-10-16T06:44:12;20.05;;;12.05;;
33413;SDS011;60055;41.884;12.534;2022-10-16T06:46:53;21.77;;;13.38;;
33413;SDS011;60055;41.884;12.534;2022-10-16T06:49:29;18.25;;;12.18;;
33413;SDS011;60055;41.884;12.534;2022-10-16T06:52:10;22.50;;;12.23;;
33413;SDS011;60055;41.884;12.534;2022-10-16T06:54:42;18.33;;;11.38;;
33413;SDS011;60055;41.884;12.534;2022-10-16T06:57:08;15.70;;;10.93;;
33413;SDS011;60055;41.884;12.534;2022-10-16T06:59:39;20.83;;;11.32;;
33413;SDS011;60055;41.884;12.534;2022-10-16T07:02:07;18.23;;;10.55;;
33413;SDS011;60055;41.884;12.534;2022-10-16T07:04:39;16.05;;;9.93;;
33413;SDS011;60055;41.884;12.534;2022-10-16T07:07:08;17.77;;;10.32;;
33413;SDS011;60055;41.884;12.534;2022-10-16T07:09:42;18.90;;;9.52;;
33413;SDS011;60055;41.884;12.534;2022-10-16T07:12:18;15.75;;;9.73;;
33413;SDS011;60055;41.884;12.534;2022-10-16T07:14:50;19.27;;;9.23;;
33413;SDS011;60055;41.884;12.534;2022-10-16T07:17:17;15.45;;;9.40;;
33413;SDS011;60055;41.884;12.534;2022-10-16T07:19:46;14.25;;;9.60;;
33413;SDS011;60055;41.884;12.534;2022-10-16T07:22:14;13.98;;;9.35;;
33413;SDS011;60055;41.884;12.534;2022-10-16T07:24:56;13.23;;;9.30;;
33413;SDS011;60055;41.884;12.534;2022-10-16T07:27:53;14.80;;;9.57;;
33413;SDS011;60055;41.884;12.534;2022-10-16T07:30:34;14.57;;;8.90;;
33413;SDS011;60055;41.884;12.534;2022-10-16T07:33:17;14.20;;;7.75;;
33413;SDS011;60055;41.884;12.534;2022-10-16T07:35:52;13.13;;;7.60;;
33413;SDS011;60055;41.884;12.534;2022-10-16T07:38:21;15.05;;;7.97;;
33413;SDS011;60055;41.884;12.534;2022-10-16T07:40:47;20.38;;;10.05;;
33413;SDS011;60055;41.884;12.534;2022-10-16T07:43:38;12.55;;;8.15;;
33413;SDS011;60055;41.884;12.534;2022-10-16T07:46:12;15.05;;;7.80;;
33413;SDS011;60055;41.884;12.534;2022-10-16T07:48:49;14.05;;;8.10;;
33413;SDS011;60055;41.884;12.534;2022-10-16T07:51:47;12.82;;;8.35;;
33413;SDS011;60055;41.884;12.534;2022-10-16T07:54:15;14.32;;;8.63;;
33413;SDS011;60055;41.884;12.534;2022-10-16T07:56:44;13.68;;;8.32;;
33413;SDS011;60055;41.884;12.534;2022-10-16T07:59:28;14.05;;;8.30;;
33413;SDS011;60055;41.884;12.534;2022-10-16T08:02:07;16.58;;;8.75;;
33413;SDS011;60055;41.884;12.534;2022-10-16T08:05:10;16.38;;;8.80;;
33413;SDS011;60055;41.884;12.534;2022-10-16T08:08:06;18.40;;;8.80;;
33413;SDS011;60055;41.884;12.534;2022-10-16T08:10:45;15.32;;;8.43;;
33413;SDS011;60055;41.884;12.534;2022-10-16T08:13:31;14.43;;;8.30;;
33413;SDS011;60055;41.884;12.534;2022-10-16T08:16:16;14.73;;;8.27;;
33413;SDS011;60055;41.884;12.534;2022-10-16T08:21:31;14.85;;;8.23;;
33413;SDS011;60055;41.884;12.534;2022-10-16T08:26:53;20.40;;;12.30;;
33413;SDS011;60055;41.884;12.534;2022-10-16T08:29:19;18.05;;;10.70;;
33413;SDS011;60055;41.884;12.534;2022-10-16T08:31:56;14.85;;;7.20;;
33413;SDS011;60055;41.884;12.534;2022-10-16T08:34:28;17.90;;;7.95;;
33413;SDS011;60055;41.884;12.534;2022-10-16T08:36:58;15.18;;;7.82;;
33413;SDS011;60055;41.884;12.534;2022-10-16T08:39:41;15.00;;;7.32;;
33413;SDS011;60055;41.884;12.534;2022-10-16T08:47:43;11.65;;;7.47;;
33413;SDS011;60055;41.884;12.534;2022-10-16T08:51:01;17.02;;;7.13;;
33413;SDS011;60055;41.884;12.534;2022-10-16T09:03:32;11.23;;;7.50;;
33413;SDS011;60055;41.884;12.534;2022-10-16T09:21:44;14.82;;;7.20;;
33413;SDS011;60055;41.884;12.534;2022-10-16T09:24:16;11.05;;;6.95;;
33413;SDS011;60055;41.884;12.534;2022-10-16T09:26:52;13.18;;;6.60;;
33413;SDS011;60055;41.884;12.534;2022-10-16T09:29:18;13.25;;;6.53;;
33413;SDS011;60055;41.884;12.534;2022-10-16T09:32:12;14.82;;;6.65;;
33413;SDS011;60055;41.884;12.534;2022-10-16T09:41:38;10.95;;;6.10;;
33413;SDS011;60055;41.884;12.534;2022-10-16T09:44:20;12.10;;;6.10;;
33413;SDS011;60055;41.884;12.534;2022-10-16T09:53:19;10.20;;;5.15;;
33413;SDS011;60055;41.884;12.534;2022-10-16T09:55:58;11.40;;;4.90;;
33413;SDS011;60055;41.884;12.534;2022-10-16T10:04:50;10.65;;;5.80;;
33413;SDS011;60055;41.884;12.534;2022-10-16T10:07:52;10.00;;;4.82;;
33413;SDS011;60055;41.884;12.534;2022-10-16T10:10:30;11.63;;;5.15;;
33413;SDS011;60055;41.884;12.534;2022-10-16T10:19:47;8.90;;;4.70;;
33413;SDS011;60055;41.884;12.534;2022-10-16T10:44:01;8.85;;;3.10;;
33413;SDS011;60055;41.884;12.534;2022-10-16T10:56:20;9.20;;;2.60;;
33413;SDS011;60055;41.884;12.534;2022-10-16T10:59:43;7.97;;;2.60;;
33413;SDS011;60055;41.884;12.534;2022-10-16T11:11:25;8.10;;;3.00;;
33413;SDS011;60055;41.884;12.534;2022-10-16T11:17:29;8.05;;;3.10;;
33413;SDS011;60055;41.884;12.534;2022-10-16T11:20:28;7.93;;;3.10;;
33413;SDS011;60055;41.884;12.534;2022-10-16T11:25:59;11.35;;;2.75;;
33413;SDS011;60055;41.884;12.534;2022-10-16T11:28:37;7.78;;;3.45;;
33413;SDS011;60055;41.884;12.534;2022-10-16T11:34:05;11.90;;;3.00;;
33413;SDS011;60055;41.884;12.534;2022-10-16T11:36:56;7.38;;;2.70;;
33413;SDS011;60055;41.884;12.534;2022-10-16T11:43:10;8.88;;;3.17;;
33413;SDS011;60055;41.884;12.534;2022-10-16T11:45:53;7.32;;;2.70;;
33413;SDS011;60055;41.884;12.534;2022-10-16T11:48:46;6.47;;;2.85;;
33413;SDS011;60055;41.884;12.534;2022-10-16T11:51:33;8.27;;;2.88;;
33413;SDS011;60055;41.884;12.534;2022-10-16T11:57:34;13.23;;;3.58;;
33413;SDS011;60055;41.884;12.534;2022-10-16T12:00:16;6.15;;;2.50;;
33413;SDS011;60055;41.884;12.534;2022-10-16T12:04:22;7.05;;;3.13;;
33413;SDS011;60055;41.884;12.534;2022-10-16T12:06:58;5.70;;;2.50;;
33413;SDS011;60055;41.884;12.534;2022-10-16T12:09:57;10.45;;;2.78;;
33413;SDS011;60055;41.884;12.534;2022-10-16T12:17:01;6.35;;;2.65;;
33413;SDS011;60055;41.884;12.534;2022-10-16T12:22:59;5.70;;;2.13;;
33413;SDS011;60055;41.884;12.534;2022-10-16T12:32:03;7.50;;;2.00;;
33413;SDS011;60055;41.884;12.534;2022-10-16T12:34:53;5.10;;;2.25;;
33413;SDS011;60055;41.884;12.534;2022-10-16T12:37:41;3.83;;;1.85;;
33413;SDS011;60055;41.884;12.534;2022-10-16T12:40:22;5.75;;;1.95;;
33413;SDS011;60055;41.884;12.534;2022-10-16T12:43:35;4.20;;;1.85;;
33413;SDS011;60055;41.884;12.534;2022-10-16T12:46:36;7.50;;;1.92;;
33413;SDS011;60055;41.884;12.534;2022-10-16T12:52:28;8.15;;;3.42;;
33413;SDS011;60055;41.884;12.534;2022-10-16T13:07:32;6.22;;;2.20;;
33413;SDS011;60055;41.884;12.534;2022-10-16T13:13:19;5.57;;;2.30;;
33413;SDS011;60055;41.884;12.534;2022-10-16T13:16:02;5.15;;;2.30;;
33413;SDS011;60055;41.884;12.534;2022-10-16T13:23:53;6.15;;;2.20;;
33413;SDS011;60055;41.884;12.534;2022-10-16T13:26:31;7.88;;;2.45;;
33413;SDS011;60055;41.884;12.534;2022-10-16T13:29:15;6.82;;;2.10;;
33413;SDS011;60055;41.884;12.534;2022-10-16T13:31:41;5.85;;;2.45;;
33413;SDS011;60055;41.884;12.534;2022-10-16T13:34:15;8.63;;;2.75;;
33413;SDS011;60055;41.884;12.534;2022-10-16T13:36:52;6.20;;;2.70;;
33413;SDS011;60055;41.884;12.534;2022-10-16T13:39:24;5.00;;;2.53;;
33413;SDS011;60055;41.884;12.534;2022-10-16T13:42:27;6.78;;;2.35;;
33413;SDS011;60055;41.884;12.534;2022-10-16T13:44:58;4.32;;;1.95;;
33413;SDS011;60055;41.884;12.534;2022-10-16T13:47:34;4.03;;;1.92;;
33413;SDS011;60055;41.884;12.534;2022-10-16T13:50:09;3.92;;;2.10;;
33413;SDS011;60055;41.884;12.534;2022-10-16T13:52:38;6.32;;;2.20;;
33413;SDS011;60055;41.884;12.534;2022-10-16T13:55:15;5.75;;;2.10;;
33413;SDS011;60055;41.884;12.534;2022-10-16T13:57:44;5.30;;;2.30;;
33413;SDS011;60055;41.884;12.534;2022-10-16T14:00:25;5.25;;;2.50;;
33413;SDS011;60055;41.884;12.534;2022-10-16T14:05:49;9.32;;;2.05;;
33413;SDS011;60055;41.884;12.534;2022-10-16T14:08:20;10.65;;;2.60;;
33413;SDS011;60055;41.884;12.534;2022-10-16T14:10:52;5.90;;;2.40;;
33413;SDS011;60055;41.884;12.534;2022-10-16T14:13:47;9.65;;;2.22;;
33413;SDS011;60055;41.884;12.534;2022-10-16T14:16:19;7.65;;;2.05;;
33413;SDS011;60055;41.884;12.534;2022-10-16T14:18:50;7.25;;;2.33;;
33413;SDS011;60055;41.884;12.534;2022-10-16T14:21:31;5.53;;;2.10;;
33413;SDS011;60055;41.884;12.534;2022-10-16T14:23:59;10.43;;;2.30;;
33413;SDS011;60055;41.884;12.534;2022-10-16T14:26:45;7.15;;;2.00;;
33413;SDS011;60055;41.884;12.534;2022-10-16T14:29:14;9.60;;;2.20;;
33413;SDS011;60055;41.884;12.534;2022-10-16T14:31:53;8.43;;;2.20;;
33413;SDS011;60055;41.884;12.534;2022-10-16T14:34:37;7.10;;;2.72;;
33413;SDS011;60055;41.884;12.534;2022-10-16T14:37:09;9.48;;;2.90;;
33413;SDS011;60055;41.884;12.534;2022-10-16T14:39:48;4.72;;;2.38;;
33413;SDS011;60055;41.884;12.534;2022-10-16T14:42:16;9.43;;;3.88;;
33413;SDS011;60055;41.884;12.534;2022-10-16T14:44:45;7.65;;;2.80;;
33413;SDS011;60055;41.884;12.534;2022-10-16T14:47:19;15.57;;;3.15;;
33413;SDS011;60055;41.884;12.534;2022-10-16T14:49:50;8.65;;;2.42;;
33413;SDS011;60055;41.884;12.534;2022-10-16T14:52:24;10.32;;;2.28;;
33413;SDS011;60055;41.884;12.534;2022-10-16T14:54:51;7.38;;;2.17;;
33413;SDS011;60055;41.884;12.534;2022-10-16T14:57:26;8.73;;;1.90;;
33413;SDS011;60055;41.884;12.534;2022-10-16T14:59:56;6.75;;;2.33;;
33413;SDS011;60055;41.884;12.534;2022-10-16T15:02:34;7.85;;;2.00;;
33413;SDS011;60055;41.884;12.534;2022-10-16T15:05:11;11.90;;;2.38;;
33413;SDS011;60055;41.884;12.534;2022-10-16T15:07:46;10.57;;;3.10;;
33413;SDS011;60055;41.884;12.534;2022-10-16T15:10:13;6.28;;;2.30;;
33413;SDS011;60055;41.884;12.534;2022-10-16T15:12:41;5.97;;;2.22;;
33413;SDS011;60055;41.884;12.534;2022-10-16T15:17:55;8.57;;;2.17;;
33413;SDS011;60055;41.884;12.534;2022-10-16T15:20:22;7.07;;;2.83;;
33413;SDS011;60055;41.884;12.534;2022-10-16T15:23:02;11.55;;;2.47;;
33413;SDS011;60055;41.884;12.534;2022-10-16T15:25:41;12.75;;;2.90;;
33413;SDS011;60055;41.884;12.534;2022-10-16T15:28:12;6.32;;;1.90;;
33413;SDS011;60055;41.884;12.534;2022-10-16T15:30:41;8.70;;;2.00;;
33413;SDS011;60055;41.884;12.534;2022-10-16T15:33:11;8.70;;;1.88;;
33413;SDS011;60055;41.884;12.534;2022-10-16T15:35:39;7.97;;;2.00;;
33413;SDS011;60055;41.884;12.534;2022-10-16T15:38:05;8.73;;;2.20;;
33413;SDS011;60055;41.884;12.534;2022-10-16T15:40:31;6.05;;;1.85;;
33413;SDS011;60055;41.884;12.534;2022-10-16T15:42:57;8.82;;;2.25;;
33413;SDS011;60055;41.884;12.534;2022-10-16T15:45:23;8.70;;;2.25;;
33413;SDS011;60055;41.884;12.534;2022-10-16T15:47:49;7.00;;;2.33;;
33413;SDS011;60055;41.884;12.534;2022-10-16T15:50:15;7.60;;;2.10;;
33413;SDS011;60055;41.884;12.534;2022-10-16T15:52:42;5.53;;;1.98;;
33413;SDS011;60055;41.884;12.534;2022-10-16T15:55:10;12.52;;;1.90;;
33413;SDS011;60055;41.884;12.534;2022-10-16T15:57:41;9.43;;;1.77;;
33413;SDS011;60055;41.884;12.534;2022-10-16T16:00:11;10.02;;;1.77;;
33413;SDS011;60055;41.884;12.534;2022-10-16T16:02:40;8.30;;;1.80;;
33413;SDS011;60055;41.884;12.534;2022-10-16T16:05:10;7.13;;;1.67;;
33413;SDS011;60055;41.884;12.534;2022-10-16T16:07:38;7.50;;;2.00;;
33413;SDS011;60055;41.884;12.534;2022-10-16T16:10:07;7.32;;;2.13;;
33413;SDS011;60055;41.884;12.534;2022-10-16T16:12:35;7.95;;;2.28;;
33413;SDS011;60055;41.884;12.534;2022-10-16T16:15:03;9.75;;;2.15;;
33413;SDS011;60055;41.884;12.534;2022-10-16T16:17:36;10.43;;;2.30;;
33413;SDS011;60055;41.884;12.534;2022-10-16T16:20:03;13.85;;;1.98;;
33413;SDS011;60055;41.884;12.534;2022-10-16T16:22:33;9.52;;;1.90;;
33413;SDS011;60055;41.884;12.534;2022-10-16T16:24:58;8.52;;;1.85;;
33413;SDS011;60055;41.884;12.534;2022-10-16T16:27:24;7.60;;;1.90;;
33413;SDS011;60055;41.884;12.534;2022-10-16T16:29:50;8.77;;;1.90;;
33413;SDS011;60055;41.884;12.534;2022-10-16T16:32:19;6.72;;;1.65;;
33413;SDS011;60055;41.884;12.534;2022-10-16T16:34:50;7.70;;;1.90;;
33413;SDS011;60055;41.884;12.534;2022-10-16T16:37:16;8.20;;;1.88;;
33413;SDS011;60055;41.884;12.534;2022-10-16T16:39:42;14.88;;;2.25;;
33413;SDS011;60055;41.884;12.534;2022-10-16T16:42:08;10.48;;;2.13;;
33413;SDS011;60055;41.884;12.534;2022-10-16T16:44:35;10.32;;;1.90;;
33413;SDS011;60055;41.884;12.534;2022-10-16T16:47:01;17.63;;;2.42;;
33413;SDS011;60055;41.884;12.534;2022-10-16T16:49:28;10.15;;;2.00;;
33413;SDS011;60055;41.884;12.534;2022-10-16T16:51:54;6.40;;;1.67;;
33413;SDS011;60055;41.884;12.534;2022-10-16T16:54:19;7.43;;;1.80;;
33413;SDS011;60055;41.884;12.534;2022-10-16T16:56:45;12.55;;;2.40;;
33413;SDS011;60055;41.884;12.534;2022-10-16T16:59:14;12.85;;;2.20;;
33413;SDS011;60055;41.884;12.534;2022-10-16T17:01:42;9.80;;;1.88;;
33413;SDS011;60055;41.884;12.534;2022-10-16T17:04:13;9.95;;;1.90;;
33413;SDS011;60055;41.884;12.534;2022-10-16T17:06:44;12.85;;;2.30;;
33413;SDS011;60055;41.884;12.534;2022-10-16T17:09:09;12.13;;;2.58;;
33413;SDS011;60055;41.884;12.534;2022-10-16T17:11:38;8.52;;;2.70;;
33413;SDS011;60055;41.884;12.534;2022-10-16T17:14:06;9.57;;;2.28;;
33413;SDS011;60055;41.884;12.534;2022-10-16T17:16:33;11.43;;;2.20;;
33413;SDS011;60055;41.884;12.534;2022-10-16T17:19:01;10.75;;;2.17;;
33413;SDS011;60055;41.884;12.534;2022-10-16T17:21:31;11.60;;;2.22;;
33413;SDS011;60055;41.884;12.534;2022-10-16T17:23:57;12.48;;;2.50;;
33413;SDS011;60055;41.884;12.534;2022-10-16T17:26:24;9.77;;;2.47;;
33413;SDS011;60055;41.884;12.534;2022-10-16T17:28:52;12.50;;;3.10;;
33413;SDS011;60055;41.884;12.534;2022-10-16T17:31:21;10.00;;;2.53;;
33413;SDS011;60055;41.884;12.534;2022-10-16T17:33:49;11.43;;;2.80;;
33413;SDS011;60055;41.884;12.534;2022-10-16T17:36:16;15.63;;;4.68;;
33413;SDS011;60055;41.884;12.534;2022-10-16T17:38:42;13.95;;;3.20;;
33413;SDS011;60055;41.884;12.534;2022-10-16T17:41:21;12.18;;;3.10;;
33413;SDS011;60055;41.884;12.534;2022-10-16T17:57:13;16.25;;;4.80;;
33413;SDS011;60055;41.884;12.534;2022-10-16T17:59:39;14.77;;;4.43;;
33413;SDS011;60055;41.884;12.534;2022-10-16T18:02:04;15.40;;;4.00;;
33413;SDS011;60055;41.884;12.534;2022-10-16T18:04:31;11.15;;;3.20;;
33413;SDS011;60055;41.884;12.534;2022-10-16T18:06:56;14.40;;;3.20;;